sensor_id;sensor_type;location;lat;lon;timestamp;temperature;humidity
44723;DHT22;30451;48.638;10.624;2022-07-06T00:01:14;27.90;44.80
44723;DHT22;30451;48.638;10.624;2022-07-06T00:03:40;27.80;44.80
44723;DHT22;30451;48.638;10.624;2022-07-06T00:06:05;27.80;44.80
44723;DHT22;30451;48.638;10.624;2022-07-06T00:08:31;27.80;44.80
44723;DHT22;30451;48.638;10.624;2022-07-06T00:10:56;27.80;44.90
44723;DHT22;30451;48.638;10.624;2022-07-06T00:13:22;27.80;44.90
44723;DHT22;30451;48.638;10.624;2022-07-06T00:15:47;27.80;44.90
44723;DHT22;30451;48.638;10.624;2022-07-06T00:18:13;27.80;45.00
44723;DHT22;30451;48.638;10.624;2022-07-06T00:20:39;27.70;44.90
44723;DHT22;30451;48.638;10.624;2022-07-06T00:23:04;27.70;44.90
44723;DHT22;30451;48.638;10.624;2022-07-06T00:25:30;27.70;44.90
44723;DHT22;30451;48.638;10.624;2022-07-06T00:27:55;27.70;44.90
44723;DHT22;30451;48.638;10.624;2022-07-06T00:30:21;27.70;44.90
44723;DHT22;30451;48.638;10.624;2022-07-06T00:32:46;27.70;45.00
44723;DHT22;30451;48.638;10.624;2022-07-06T00:35:12;27.70;45.00
44723;DHT22;30451;48.638;10.624;2022-07-06T00:37:37;27.70;45.00
44723;DHT22;30451;48.638;10.624;2022-07-06T00:40:03;27.70;45.10
44723;DHT22;30451;48.638;10.624;2022-07-06T00:42:29;27.70;45.10
44723;DHT22;30451;48.638;10.624;2022-07-06T00:44:54;27.60;45.00
44723;DHT22;30451;48.638;10.624;2022-07-06T00:47:20;27.70;45.00
44723;DHT22;30451;48.638;10.624;2022-07-06T00:49:45;27.60;45.00
44723;DHT22;30451;48.638;10.624;2022-07-06T00:52:30;27.60;45.00
44723;DHT22;30451;48.638;10.624;2022-07-06T00:54:55;27.60;45.00
44723;DHT22;30451;48.638;10.624;2022-07-06T00:57:21;27.60;45.10
44723;DHT22;30451;48.638;10.624;2022-07-06T00:59:46;27.60;45.10
44723;DHT22;30451;48.638;10.624;2022-07-06T01:02:12;27.60;45.10
44723;DHT22;30451;48.638;10.624;2022-07-06T01:04:37;27.50;45.10
44723;DHT22;30451;48.638;10.624;2022-07-06T01:07:03;27.50;45.10
44723;DHT22;30451;48.638;10.624;2022-07-06T01:09:28;27.50;45.10
44723;DHT22;30451;48.638;10.624;2022-07-06T01:11:54;27.50;45.20
44723;DHT22;30451;48.638;10.624;2022-07-06T01:14:20;27.50;45.20
44723;DHT22;30451;48.638;10.624;2022-07-06T01:16:45;27.50;45.30
44723;DHT22;30451;48.638;10.624;2022-07-06T01:19:11;27.50;45.30
44723;DHT22;30451;48.638;10.624;2022-07-06T01:21:37;27.50;45.20
44723;DHT22;30451;48.638;10.624;2022-07-06T01:24:03;27.50;45.30
44723;DHT22;30451;48.638;10.624;2022-07-06T01:26:28;27.50;45.30
44723;DHT22;30451;48.638;10.624;2022-07-06T01:28:54;27.40;45.30
44723;DHT22;30451;48.638;10.624;2022-07-06T01:31:23;27.40;45.30
44723;DHT22;30451;48.638;10.624;2022-07-06T01:33:49;27.40;45.30
44723;DHT22;30451;48.638;10.624;2022-07-06T01:36:16;27.40;45.30
44723;DHT22;30451;48.638;10.624;2022-07-06T01:38:59;27.40;45.30
44723;DHT22;30451;48.638;10.624;2022-07-06T01:41:25;27.40;45.40
44723;DHT22;30451;48.638;10.624;2022-07-06T01:43:51;27.30;45.30
44723;DHT22;30451;48.638;10.624;2022-07-06T01:46:17;27.30;45.30
44723;DHT22;30451;48.638;10.624;2022-07-06T01:48:44;27.30;45.30
44723;DHT22;30451;48.638;10.624;2022-07-06T01:51:10;27.40;45.50
44723;DHT22;30451;48.638;10.624;2022-07-06T01:53:37;27.30;45.40
44723;DHT22;30451;48.638;10.624;2022-07-06T01:56:03;27.30;45.40
44723;DHT22;30451;48.638;10.624;2022-07-06T01:58:28;27.30;45.50
44723;DHT22;30451;48.638;10.624;2022-07-06T02:00:54;27.30;45.50
44723;DHT22;30451;48.638;10.624;2022-07-06T02:03:19;27.20;45.50
44723;DHT22;30451;48.638;10.624;2022-07-06T02:05:45;27.20;45.50
44723;DHT22;30451;48.638;10.624;2022-07-06T02:08:10;27.20;45.50
44723;DHT22;30451;48.638;10.624;2022-07-06T02:10:36;27.20;45.60
44723;DHT22;30451;48.638;10.624;2022-07-06T02:13:02;27.20;45.50
44723;DHT22;30451;48.638;10.624;2022-07-06T02:15:27;27.20;45.50
44723;DHT22;30451;48.638;10.624;2022-07-06T02:17:53;27.20;45.90
44723;DHT22;30451;48.638;10.624;2022-07-06T02:20:18;27.20;45.60
44723;DHT22;30451;48.638;10.624;2022-07-06T02:22:44;27.20;45.60
44723;DHT22;30451;48.638;10.624;2022-07-06T02:25:09;27.20;45.60
44723;DHT22;30451;48.638;10.624;2022-07-06T02:27:35;27.20;45.70
44723;DHT22;30451;48.638;10.624;2022-07-06T02:30:00;27.10;45.60
44723;DHT22;30451;48.638;10.624;2022-07-06T02:32:26;27.10;45.60
44723;DHT22;30451;48.638;10.624;2022-07-06T02:34:52;27.10;45.60
44723;DHT22;30451;48.638;10.624;2022-07-06T02:37:18;27.10;45.60
44723;DHT22;30451;48.638;10.624;2022-07-06T02:39:43;27.10;45.70
44723;DHT22;30451;48.638;10.624;2022-07-06T02:42:09;27.10;45.60
44723;DHT22;30451;48.638;10.624;2022-07-06T02:44:34;27.10;45.70
44723;DHT22;30451;48.638;10.624;2022-07-06T02:47:00;27.00;45.60
44723;DHT22;30451;48.638;10.624;2022-07-06T02:49:26;27.00;45.70
44723;DHT22;30451;48.638;10.624;2022-07-06T02:51:51;27.00;45.70
44723;DHT22;30451;48.638;10.624;2022-07-06T02:54:17;27.00;45.60
44723;DHT22;30451;48.638;10.624;2022-07-06T02:56:42;27.00;45.70
44723;DHT22;30451;48.638;10.624;2022-07-06T02:59:08;27.00;45.70
44723;DHT22;30451;48.638;10.624;2022-07-06T03:01:33;27.00;45.70
44723;DHT22;30451;48.638;10.624;2022-07-06T03:03:59;27.00;45.70
44723;DHT22;30451;48.638;10.624;2022-07-06T03:06:24;27.00;45.70
44723;DHT22;30451;48.638;10.624;2022-07-06T03:08:50;27.00;45.80
44723;DHT22;30451;48.638;10.624;2022-07-06T03:11:15;27.00;45.80
44723;DHT22;30451;48.638;10.624;2022-07-06T03:13:41;27.00;45.80
44723;DHT22;30451;48.638;10.624;2022-07-06T03:16:06;27.00;45.80
44723;DHT22;30451;48.638;10.624;2022-07-06T03:18:32;27.00;45.80
44723;DHT22;30451;48.638;10.624;2022-07-06T03:20:57;26.90;45.80
44723;DHT22;30451;48.638;10.624;2022-07-06T03:23:23;26.90;45.80
44723;DHT22;30451;48.638;10.624;2022-07-06T03:25:48;26.90;45.80
44723;DHT22;30451;48.638;10.624;2022-07-06T03:28:14;26.90;45.80
44723;DHT22;30451;48.638;10.624;2022-07-06T03:30:39;26.90;45.90
44723;DHT22;30451;48.638;10.624;2022-07-06T03:33:05;26.90;45.90
44723;DHT22;30451;48.638;10.624;2022-07-06T03:35:30;26.90;45.90
44723;DHT22;30451;48.638;10.624;2022-07-06T03:37:56;26.80;45.90
44723;DHT22;30451;48.638;10.624;2022-07-06T03:40:21;26.90;46.00
44723;DHT22;30451;48.638;10.624;2022-07-06T03:42:47;26.90;45.90
44723;DHT22;30451;48.638;10.624;2022-07-06T03:45:12;26.90;45.90
44723;DHT22;30451;48.638;10.624;2022-07-06T03:47:38;26.90;45.90
44723;DHT22;30451;48.638;10.624;2022-07-06T03:50:04;26.80;43.80
44723;DHT22;30451;48.638;10.624;2022-07-06T03:52:29;26.70;42.00
44723;DHT22;30451;48.638;10.624;2022-07-06T03:54:55;26.70;40.80
44723;DHT22;30451;48.638;10.624;2022-07-06T03:57:21;26.50;39.90
44723;DHT22;30451;48.638;10.624;2022-07-06T03:59:46;26.30;39.40
44723;DHT22;30451;48.638;10.624;2022-07-06T04:02:12;26.20;39.90
44723;DHT22;30451;48.638;10.624;2022-07-06T04:04:37;26.10;39.60
44723;DHT22;30451;48.638;10.624;2022-07-06T04:07:03;26.00;39.60
44723;DHT22;30451;48.638;10.624;2022-07-06T04:09:28;25.90;38.70
44723;DHT22;30451;48.638;10.624;2022-07-06T04:11:54;25.80;39.30
44723;DHT22;30451;48.638;10.624;2022-07-06T04:14:19;25.70;39.80
44723;DHT22;30451;48.638;10.624;2022-07-06T04:16:45;25.70;39.50
44723;DHT22;30451;48.638;10.624;2022-07-06T04:19:10;25.60;39.40
44723;DHT22;30451;48.638;10.624;2022-07-06T04:21:36;25.50;39.80
44723;DHT22;30451;48.638;10.624;2022-07-06T04:24:01;25.40;40.50
44723;DHT22;30451;48.638;10.624;2022-07-06T04:26:27;25.30;40.10
44723;DHT22;30451;48.638;10.624;2022-07-06T04:28:52;25.40;40.50
44723;DHT22;30451;48.638;10.624;2022-07-06T04:31:18;25.40;40.70
44723;DHT22;30451;48.638;10.624;2022-07-06T04:33:43;25.30;40.40
44723;DHT22;30451;48.638;10.624;2022-07-06T04:36:09;25.20;40.20
44723;DHT22;30451;48.638;10.624;2022-07-06T04:38:35;25.20;40.90
44723;DHT22;30451;48.638;10.624;2022-07-06T04:41:00;25.20;41.00
44723;DHT22;30451;48.638;10.624;2022-07-06T04:43:26;25.30;40.70
44723;DHT22;30451;48.638;10.624;2022-07-06T04:45:51;25.30;40.50
44723;DHT22;30451;48.638;10.624;2022-07-06T04:48:17;25.20;40.80
44723;DHT22;30451;48.638;10.624;2022-07-06T04:50:42;25.30;40.90
44723;DHT22;30451;48.638;10.624;2022-07-06T04:53:08;25.30;40.60
44723;DHT22;30451;48.638;10.624;2022-07-06T04:55:33;25.20;40.60
44723;DHT22;30451;48.638;10.624;2022-07-06T04:57:59;25.20;40.90
44723;DHT22;30451;48.638;10.624;2022-07-06T05:00:24;25.10;41.00
44723;DHT22;30451;48.638;10.624;2022-07-06T05:02:50;25.10;41.20
44723;DHT22;30451;48.638;10.624;2022-07-06T05:05:15;25.00;41.10
44723;DHT22;30451;48.638;10.624;2022-07-06T05:07:41;24.80;41.40
44723;DHT22;30451;48.638;10.624;2022-07-06T05:10:10;24.50;42.00
44723;DHT22;30451;48.638;10.624;2022-07-06T05:12:36;24.40;42.80
44723;DHT22;30451;48.638;10.624;2022-07-06T05:15:01;24.50;43.00
44723;DHT22;30451;48.638;10.624;2022-07-06T05:17:27;24.50;43.00
44723;DHT22;30451;48.638;10.624;2022-07-06T05:19:53;24.60;43.10
44723;DHT22;30451;48.638;10.624;2022-07-06T05:22:18;24.70;43.20
44723;DHT22;30451;48.638;10.624;2022-07-06T05:24:44;24.80;43.20
44723;DHT22;30451;48.638;10.624;2022-07-06T05:27:09;24.90;43.30
44723;DHT22;30451;48.638;10.624;2022-07-06T05:29:35;24.90;43.20
44723;DHT22;30451;48.638;10.624;2022-07-06T05:32:01;25.00;43.30
44723;DHT22;30451;48.638;10.624;2022-07-06T05:34:27;25.00;43.20
44723;DHT22;30451;48.638;10.624;2022-07-06T05:36:52;25.10;43.30
44723;DHT22;30451;48.638;10.624;2022-07-06T05:39:18;25.10;43.30
44723;DHT22;30451;48.638;10.624;2022-07-06T05:41:46;25.10;43.20
44723;DHT22;30451;48.638;10.624;2022-07-06T05:44:12;25.20;43.30
44723;DHT22;30451;48.638;10.624;2022-07-06T05:46:37;25.20;43.30
44723;DHT22;30451;48.638;10.624;2022-07-06T05:49:03;25.30;43.40
44723;DHT22;30451;48.638;10.624;2022-07-06T05:51:47;25.30;43.40
44723;DHT22;30451;48.638;10.624;2022-07-06T05:54:12;25.30;43.40
44723;DHT22;30451;48.638;10.624;2022-07-06T05:56:38;25.40;43.50
44723;DHT22;30451;48.638;10.624;2022-07-06T05:59:03;25.40;43.40
44723;DHT22;30451;48.638;10.624;2022-07-06T06:01:29;25.40;43.40
44723;DHT22;30451;48.638;10.624;2022-07-06T06:03:54;25.50;43.50
44723;DHT22;30451;48.638;10.624;2022-07-06T06:06:20;25.50;43.50
44723;DHT22;30451;48.638;10.624;2022-07-06T06:08:45;25.50;43.50
44723;DHT22;30451;48.638;10.624;2022-07-06T06:11:11;25.60;43.60
44723;DHT22;30451;48.638;10.624;2022-07-06T06:13:36;25.60;43.60
44723;DHT22;30451;48.638;10.624;2022-07-06T06:16:02;25.60;43.60
44723;DHT22;30451;48.638;10.624;2022-07-06T06:18:27;25.70;43.70
44723;DHT22;30451;48.638;10.624;2022-07-06T06:20:53;25.70;43.70
44723;DHT22;30451;48.638;10.624;2022-07-06T06:23:18;25.70;43.70
44723;DHT22;30451;48.638;10.624;2022-07-06T06:25:44;25.70;43.70
44723;DHT22;30451;48.638;10.624;2022-07-06T06:28:10;25.70;43.70
44723;DHT22;30451;48.638;10.624;2022-07-06T06:30:36;25.80;43.80
44723;DHT22;30451;48.638;10.624;2022-07-06T06:33:20;25.80;43.70
44723;DHT22;30451;48.638;10.624;2022-07-06T06:35:49;25.90;43.80
44723;DHT22;30451;48.638;10.624;2022-07-06T06:38:16;25.80;43.70
44723;DHT22;30451;48.638;10.624;2022-07-06T06:40:42;25.90;43.70
44723;DHT22;30451;48.638;10.624;2022-07-06T06:43:07;25.90;43.70
44723;DHT22;30451;48.638;10.624;2022-07-06T06:45:33;26.00;43.80
44723;DHT22;30451;48.638;10.624;2022-07-06T06:47:59;26.00;43.80
44723;DHT22;30451;48.638;10.624;2022-07-06T06:50:24;26.00;43.80
44723;DHT22;30451;48.638;10.624;2022-07-06T06:52:50;26.00;43.80
44723;DHT22;30451;48.638;10.624;2022-07-06T06:55:16;26.10;43.80
44723;DHT22;30451;48.638;10.624;2022-07-06T06:57:41;26.10;43.80
44723;DHT22;30451;48.638;10.624;2022-07-06T07:00:07;26.10;43.80
44723;DHT22;30451;48.638;10.624;2022-07-06T07:02:33;26.20;43.80
44723;DHT22;30451;48.638;10.624;2022-07-06T07:04:58;26.20;43.80
44723;DHT22;30451;48.638;10.624;2022-07-06T07:07:24;26.20;43.90
44723;DHT22;30451;48.638;10.624;2022-07-06T07:09:50;26.20;43.90
44723;DHT22;30451;48.638;10.624;2022-07-06T07:12:15;26.20;44.00
44723;DHT22;30451;48.638;10.624;2022-07-06T07:14:42;26.20;44.10
44723;DHT22;30451;48.638;10.624;2022-07-06T07:17:08;26.20;44.00
44723;DHT22;30451;48.638;10.624;2022-07-06T07:19:33;26.20;44.20
44723;DHT22;30451;48.638;10.624;2022-07-06T07:21:59;26.30;44.20
44723;DHT22;30451;48.638;10.624;2022-07-06T07:24:24;26.30;44.20
44723;DHT22;30451;48.638;10.624;2022-07-06T07:26:50;26.30;44.10
44723;DHT22;30451;48.638;10.624;2022-07-06T07:29:15;26.40;44.40
44723;DHT22;30451;48.638;10.624;2022-07-06T07:31:41;26.40;45.00
44723;DHT22;30451;48.638;10.624;2022-07-06T07:34:06;26.40;44.40
44723;DHT22;30451;48.638;10.624;2022-07-06T07:36:32;26.40;44.50
44723;DHT22;30451;48.638;10.624;2022-07-06T07:38:57;26.40;44.60
44723;DHT22;30451;48.638;10.624;2022-07-06T07:41:23;26.50;44.80
44723;DHT22;30451;48.638;10.624;2022-07-06T07:43:49;26.50;44.60
44723;DHT22;30451;48.638;10.624;2022-07-06T07:46:14;26.60;44.40
44723;DHT22;30451;48.638;10.624;2022-07-06T07:48:40;26.60;44.40
44723;DHT22;30451;48.638;10.624;2022-07-06T07:51:05;26.60;44.60
44723;DHT22;30451;48.638;10.624;2022-07-06T07:53:31;26.60;44.50
44723;DHT22;30451;48.638;10.624;2022-07-06T07:55:56;26.60;44.60
44723;DHT22;30451;48.638;10.624;2022-07-06T07:58:21;26.60;44.50
44723;DHT22;30451;48.638;10.624;2022-07-06T08:00:47;26.60;44.60
44723;DHT22;30451;48.638;10.624;2022-07-06T08:03:12;26.70;44.80
44723;DHT22;30451;48.638;10.624;2022-07-06T08:05:38;26.70;44.80
44723;DHT22;30451;48.638;10.624;2022-07-06T08:08:04;26.70;44.90
44723;DHT22;30451;48.638;10.624;2022-07-06T08:10:30;26.70;45.00
44723;DHT22;30451;48.638;10.624;2022-07-06T08:12:56;26.80;44.90
44723;DHT22;30451;48.638;10.624;2022-07-06T08:15:21;26.80;44.80
44723;DHT22;30451;48.638;10.624;2022-07-06T08:17:47;26.80;44.80
44723;DHT22;30451;48.638;10.624;2022-07-06T08:20:12;26.80;44.80
44723;DHT22;30451;48.638;10.624;2022-07-06T08:22:38;26.80;45.20
44723;DHT22;30451;48.638;10.624;2022-07-06T08:25:04;26.80;45.50
44723;DHT22;30451;48.638;10.624;2022-07-06T08:27:30;26.80;45.30
44723;DHT22;30451;48.638;10.624;2022-07-06T08:29:55;26.80;45.50
44723;DHT22;30451;48.638;10.624;2022-07-06T08:32:21;26.80;45.40
44723;DHT22;30451;48.638;10.624;2022-07-06T08:34:46;26.90;45.40
44723;DHT22;30451;48.638;10.624;2022-07-06T08:37:12;26.90;45.50
44723;DHT22;30451;48.638;10.624;2022-07-06T08:39:37;26.90;45.30
44723;DHT22;30451;48.638;10.624;2022-07-06T08:42:03;26.90;45.80
44723;DHT22;30451;48.638;10.624;2022-07-06T08:44:29;26.90;45.40
44723;DHT22;30451;48.638;10.624;2022-07-06T08:46:55;27.00;45.20
44723;DHT22;30451;48.638;10.624;2022-07-06T08:49:22;27.00;45.10
44723;DHT22;30451;48.638;10.624;2022-07-06T08:51:47;27.00;45.40
44723;DHT22;30451;48.638;10.624;2022-07-06T08:54:13;27.00;45.40
44723;DHT22;30451;48.638;10.624;2022-07-06T08:56:39;27.00;45.60
44723;DHT22;30451;48.638;10.624;2022-07-06T08:59:05;27.00;45.70
44723;DHT22;30451;48.638;10.624;2022-07-06T09:01:35;27.00;45.60
44723;DHT22;30451;48.638;10.624;2022-07-06T09:04:00;27.10;45.70
44723;DHT22;30451;48.638;10.624;2022-07-06T09:06:28;27.10;45.50
44723;DHT22;30451;48.638;10.624;2022-07-06T09:08:54;27.10;45.30
44723;DHT22;30451;48.638;10.624;2022-07-06T09:11:23;27.20;45.30
44723;DHT22;30451;48.638;10.624;2022-07-06T09:13:52;27.20;45.30
44723;DHT22;30451;48.638;10.624;2022-07-06T09:16:24;27.20;45.30
44723;DHT22;30451;48.638;10.624;2022-07-06T09:18:50;27.20;45.30
44723;DHT22;30451;48.638;10.624;2022-07-06T09:23:54;27.20;45.20
44723;DHT22;30451;48.638;10.624;2022-07-06T09:26:19;27.20;45.20
44723;DHT22;30451;48.638;10.624;2022-07-06T09:28:45;27.30;45.30
44723;DHT22;30451;48.638;10.624;2022-07-06T09:31:12;27.30;45.30
44723;DHT22;30451;48.638;10.624;2022-07-06T09:33:37;27.30;45.30
44723;DHT22;30451;48.638;10.624;2022-07-06T09:36:03;27.30;45.30
44723;DHT22;30451;48.638;10.624;2022-07-06T09:38:29;27.30;45.30
44723;DHT22;30451;48.638;10.624;2022-07-06T09:40:54;27.30;45.30
44723;DHT22;30451;48.638;10.624;2022-07-06T09:43:20;27.30;45.20
44723;DHT22;30451;48.638;10.624;2022-07-06T09:48:19;27.30;45.20
44723;DHT22;30451;48.638;10.624;2022-07-06T09:50:57;27.30;45.30
44723;DHT22;30451;48.638;10.624;2022-07-06T09:53:24;27.30;45.30
44723;DHT22;30451;48.638;10.624;2022-07-06T09:55:50;27.40;45.40
44723;DHT22;30451;48.638;10.624;2022-07-06T09:58:16;27.40;45.40
44723;DHT22;30451;48.638;10.624;2022-07-06T10:00:43;27.40;45.30
44723;DHT22;30451;48.638;10.624;2022-07-06T10:03:09;27.40;45.30
44723;DHT22;30451;48.638;10.624;2022-07-06T10:05:39;27.40;45.30
44723;DHT22;30451;48.638;10.624;2022-07-06T10:08:05;27.40;45.30
44723;DHT22;30451;48.638;10.624;2022-07-06T10:10:31;27.40;45.40
44723;DHT22;30451;48.638;10.624;2022-07-06T10:12:57;27.40;45.50
44723;DHT22;30451;48.638;10.624;2022-07-06T10:15:24;27.40;45.30
44723;DHT22;30451;48.638;10.624;2022-07-06T10:17:50;27.40;45.30
44723;DHT22;30451;48.638;10.624;2022-07-06T10:20:15;27.40;45.10
44723;DHT22;30451;48.638;10.624;2022-07-06T10:22:42;27.40;45.00
44723;DHT22;30451;48.638;10.624;2022-07-06T10:25:08;27.50;45.00
44723;DHT22;30451;48.638;10.624;2022-07-06T10:27:33;27.40;44.80
44723;DHT22;30451;48.638;10.624;2022-07-06T10:30:00;27.40;44.70
44723;DHT22;30451;48.638;10.624;2022-07-06T10:32:26;27.40;44.70
44723;DHT22;30451;48.638;10.624;2022-07-06T10:34:52;27.40;44.60
44723;DHT22;30451;48.638;10.624;2022-07-06T10:37:24;27.40;44.60
44723;DHT22;30451;48.638;10.624;2022-07-06T10:39:50;27.40;44.60
44723;DHT22;30451;48.638;10.624;2022-07-06T10:50:36;27.40;44.70
44723;DHT22;30451;48.638;10.624;2022-07-06T10:53:02;27.40;44.50
44723;DHT22;30451;48.638;10.624;2022-07-06T10:55:37;27.40;44.30
44723;DHT22;30451;48.638;10.624;2022-07-06T10:58:03;27.40;44.40
44723;DHT22;30451;48.638;10.624;2022-07-06T11:04:04;27.40;45.10
44723;DHT22;30451;48.638;10.624;2022-07-06T11:06:01;27.40;44.60
44723;DHT22;30451;48.638;10.624;2022-07-06T11:08:43;27.50;44.80
44723;DHT22;30451;48.638;10.624;2022-07-06T11:11:51;27.50;44.80
44723;DHT22;30451;48.638;10.624;2022-07-06T11:19:03;27.50;44.90
44723;DHT22;30451;48.638;10.624;2022-07-06T11:21:33;27.50;45.40
44723;DHT22;30451;48.638;10.624;2022-07-06T11:24:00;27.50;44.80
44723;DHT22;30451;48.638;10.624;2022-07-06T11:26:26;27.50;44.90
44723;DHT22;30451;48.638;10.624;2022-07-06T11:28:52;27.50;44.90
44723;DHT22;30451;48.638;10.624;2022-07-06T11:31:18;27.50;44.90
44723;DHT22;30451;48.638;10.624;2022-07-06T11:33:47;27.60;45.00
44723;DHT22;30451;48.638;10.624;2022-07-06T11:38:38;27.60;45.10
44723;DHT22;30451;48.638;10.624;2022-07-06T11:41:06;27.60;45.10
44723;DHT22;30451;48.638;10.624;2022-07-06T11:43:32;27.60;45.10
44723;DHT22;30451;48.638;10.624;2022-07-06T11:45:58;27.60;45.10
44723;DHT22;30451;48.638;10.624;2022-07-06T11:48:23;27.60;45.10
44723;DHT22;30451;48.638;10.624;2022-07-06T11:51:02;27.60;45.10
44723;DHT22;30451;48.638;10.624;2022-07-06T11:53:28;27.70;45.10
44723;DHT22;30451;48.638;10.624;2022-07-06T11:55:54;27.70;45.20
44723;DHT22;30451;48.638;10.624;2022-07-06T11:58:20;27.70;45.20
44723;DHT22;30451;48.638;10.624;2022-07-06T12:01:02;27.70;45.40
44723;DHT22;30451;48.638;10.624;2022-07-06T12:03:28;27.70;45.50
44723;DHT22;30451;48.638;10.624;2022-07-06T12:05:54;27.70;45.40
44723;DHT22;30451;48.638;10.624;2022-07-06T12:08:19;27.70;45.30
44723;DHT22;30451;48.638;10.624;2022-07-06T12:10:45;27.70;45.10
44723;DHT22;30451;48.638;10.624;2022-07-06T12:13:10;27.70;45.20
44723;DHT22;30451;48.638;10.624;2022-07-06T12:15:36;27.70;45.10
44723;DHT22;30451;48.638;10.624;2022-07-06T12:18:01;27.80;45.10
44723;DHT22;30451;48.638;10.624;2022-07-06T12:20:27;27.80;45.40
44723;DHT22;30451;48.638;10.624;2022-07-06T12:23:02;27.80;45.30
44723;DHT22;30451;48.638;10.624;2022-07-06T12:25:29;27.80;45.30
44723;DHT22;30451;48.638;10.624;2022-07-06T12:27:55;27.80;45.30
44723;DHT22;30451;48.638;10.624;2022-07-06T12:30:20;27.80;45.80
44723;DHT22;30451;48.638;10.624;2022-07-06T12:32:46;27.80;46.00
44723;DHT22;30451;48.638;10.624;2022-07-06T12:35:11;27.80;46.20
44723;DHT22;30451;48.638;10.624;2022-07-06T12:37:37;27.80;46.10
44723;DHT22;30451;48.638;10.624;2022-07-06T12:40:11;27.80;45.90
44723;DHT22;30451;48.638;10.624;2022-07-06T12:42:45;27.90;46.00
44723;DHT22;30451;48.638;10.624;2022-07-06T12:45:10;27.90;45.90
44723;DHT22;30451;48.638;10.624;2022-07-06T12:47:36;27.90;46.10
44723;DHT22;30451;48.638;10.624;2022-07-06T12:50:08;27.90;46.40
44723;DHT22;30451;48.638;10.624;2022-07-06T12:52:34;27.90;46.60
44723;DHT22;30451;48.638;10.624;2022-07-06T12:55:02;27.90;46.30
44723;DHT22;30451;48.638;10.624;2022-07-06T12:57:28;27.90;46.30
44723;DHT22;30451;48.638;10.624;2022-07-06T13:00:07;27.90;46.20
44723;DHT22;30451;48.638;10.624;2022-07-06T13:02:33;28.00;46.20
44723;DHT22;30451;48.638;10.624;2022-07-06T13:05:05;28.00;46.10
44723;DHT22;30451;48.638;10.624;2022-07-06T13:07:32;28.00;46.00
44723;DHT22;30451;48.638;10.624;2022-07-06T13:09:58;28.10;46.00
44723;DHT22;30451;48.638;10.624;2022-07-06T13:12:24;28.10;46.00
44723;DHT22;30451;48.638;10.624;2022-07-06T13:14:49;28.10;46.00
44723;DHT22;30451;48.638;10.624;2022-07-06T13:17:15;28.10;46.00
44723;DHT22;30451;48.638;10.624;2022-07-06T13:19:41;28.10;46.00
44723;DHT22;30451;48.638;10.624;2022-07-06T13:22:06;28.10;46.00
44723;DHT22;30451;48.638;10.624;2022-07-06T13:24:31;28.10;46.00
44723;DHT22;30451;48.638;10.624;2022-07-06T13:26:57;28.10;45.90
44723;DHT22;30451;48.638;10.624;2022-07-06T13:29:23;28.10;46.00
44723;DHT22;30451;48.638;10.624;2022-07-06T13:31:48;28.20;46.10
44723;DHT22;30451;48.638;10.624;2022-07-06T13:34:14;28.20;46.00
44723;DHT22;30451;48.638;10.624;2022-07-06T13:36:40;28.10;45.90
44723;DHT22;30451;48.638;10.624;2022-07-06T13:39:05;28.20;46.00
44723;DHT22;30451;48.638;10.624;2022-07-06T13:41:31;28.20;46.10
44723;DHT22;30451;48.638;10.624;2022-07-06T13:43:57;28.10;46.00
44723;DHT22;30451;48.638;10.624;2022-07-06T13:46:23;28.20;46.00
44723;DHT22;30451;48.638;10.624;2022-07-06T13:48:49;28.20;46.00
44723;DHT22;30451;48.638;10.624;2022-07-06T13:51:15;28.20;45.90
44723;DHT22;30451;48.638;10.624;2022-07-06T13:53:40;28.20;45.80
44723;DHT22;30451;48.638;10.624;2022-07-06T13:56:06;28.20;45.80
44723;DHT22;30451;48.638;10.624;2022-07-06T13:58:33;28.20;45.80
44723;DHT22;30451;48.638;10.624;2022-07-06T14:00:59;28.10;45.70
44723;DHT22;30451;48.638;10.624;2022-07-06T14:03:24;28.10;45.80
44723;DHT22;30451;48.638;10.624;2022-07-06T14:05:58;28.10;45.90
44723;DHT22;30451;48.638;10.624;2022-07-06T14:08:24;28.10;45.90
44723;DHT22;30451;48.638;10.624;2022-07-06T14:10:50;28.10;45.90
44723;DHT22;30451;48.638;10.624;2022-07-06T14:13:15;28.10;46.00
44723;DHT22;30451;48.638;10.624;2022-07-06T14:15:41;28.10;46.20
44723;DHT22;30451;48.638;10.624;2022-07-06T14:18:06;28.10;46.30
44723;DHT22;30451;48.638;10.624;2022-07-06T14:20:32;28.10;46.40
44723;DHT22;30451;48.638;10.624;2022-07-06T14:22:58;28.00;46.30
44723;DHT22;30451;48.638;10.624;2022-07-06T14:25:23;28.10;46.40
44723;DHT22;30451;48.638;10.624;2022-07-06T14:27:50;28.10;46.30
44723;DHT22;30451;48.638;10.624;2022-07-06T14:30:15;28.10;46.20
44723;DHT22;30451;48.638;10.624;2022-07-06T14:32:41;28.10;46.20
44723;DHT22;30451;48.638;10.624;2022-07-06T14:35:09;28.10;46.20
44723;DHT22;30451;48.638;10.624;2022-07-06T14:37:35;28.10;46.20
44723;DHT22;30451;48.638;10.624;2022-07-06T14:40:00;28.10;46.20
44723;DHT22;30451;48.638;10.624;2022-07-06T14:42:26;28.10;46.20
44723;DHT22;30451;48.638;10.624;2022-07-06T14:44:51;28.10;46.30
44723;DHT22;30451;48.638;10.624;2022-07-06T14:47:17;28.10;46.20
44723;DHT22;30451;48.638;10.624;2022-07-06T14:49:42;28.00;46.10
44723;DHT22;30451;48.638;10.624;2022-07-06T14:52:08;28.00;46.10
44723;DHT22;30451;48.638;10.624;2022-07-06T14:54:35;28.00;46.10
44723;DHT22;30451;48.638;10.624;2022-07-06T14:57:01;28.00;46.20
44723;DHT22;30451;48.638;10.624;2022-07-06T14:59:28;28.00;46.20
44723;DHT22;30451;48.638;10.624;2022-07-06T15:01:53;28.00;46.20
44723;DHT22;30451;48.638;10.624;2022-07-06T15:04:19;27.90;46.20
44723;DHT22;30451;48.638;10.624;2022-07-06T15:06:44;27.90;46.30
44723;DHT22;30451;48.638;10.624;2022-07-06T15:09:10;27.90;46.30
44723;DHT22;30451;48.638;10.624;2022-07-06T15:11:35;27.90;46.30
44723;DHT22;30451;48.638;10.624;2022-07-06T15:14:01;27.90;46.40
44723;DHT22;30451;48.638;10.624;2022-07-06T15:16:26;27.90;46.40
44723;DHT22;30451;48.638;10.624;2022-07-06T15:18:52;27.90;46.40
44723;DHT22;30451;48.638;10.624;2022-07-06T15:21:17;27.90;46.40
44723;DHT22;30451;48.638;10.624;2022-07-06T15:23:43;27.80;46.40
44723;DHT22;30451;48.638;10.624;2022-07-06T15:26:08;27.90;46.50
44723;DHT22;30451;48.638;10.624;2022-07-06T15:28:34;27.90;46.60
44723;DHT22;30451;48.638;10.624;2022-07-06T15:30:59;27.90;46.50
44723;DHT22;30451;48.638;10.624;2022-07-06T15:33:25;27.90;46.60